createdAt,value
2017-05-08T00:00:15.601Z,36.13
2017-05-08T00:02:43.913Z,37.53
2017-05-08T00:05:12.269Z,38.32
2017-05-08T00:07:41.006Z,36.15
2017-05-08T00:10:09.317Z,38.40
2017-05-08T00:12:37.629Z,38.37
2017-05-08T00:15:05.941Z,36.15
2017-05-08T00:17:39.530Z,39.58
2017-05-08T00:20:08.002Z,34.37
2017-05-08T00:22:37.066Z,39.25
2017-05-08T00:25:05.380Z,36.50
2017-05-08T00:27:33.688Z,36.03
2017-05-08T00:30:02.007Z,37.87
2017-05-08T00:32:31.101Z,35.35
2017-05-08T00:34:59.409Z,34.20
2017-05-08T00:37:27.765Z,34.57
2017-05-08T00:39:56.434Z,36.15
2017-05-08T00:42:25.717Z,33.00
2017-05-08T00:44:54.026Z,35.65
2017-05-08T00:47:22.333Z,34.07
2017-05-08T00:49:50.641Z,35.07
2017-05-08T00:52:19.701Z,36.37
2017-05-08T00:54:48.681Z,33.52
2017-05-08T00:57:16.989Z,36.58
2017-05-08T00:59:45.301Z,36.55
2017-05-08T01:02:13.608Z,35.37
2017-05-08T01:04:41.918Z,37.47
2017-05-08T01:07:10.270Z,36.03
2017-05-08T01:09:39.321Z,31.98
2017-05-08T01:12:07.629Z,35.77
2017-05-08T01:14:35.942Z,34.45
2017-05-08T01:17:04.253Z,38.33
2017-05-08T01:19:33.108Z,33.67
2017-05-08T01:22:01.653Z,38.10
2017-05-08T01:24:29.961Z,37.40
2017-05-08T01:26:58.269Z,36.60
2017-05-08T01:29:26.577Z,32.03
2017-05-08T01:31:54.949Z,33.92
2017-05-08T01:34:23.257Z,36.72
2017-05-08T01:36:52.215Z,33.73
2017-05-08T01:39:20.532Z,30.18
2017-05-08T01:41:48.841Z,30.95
2017-05-08T01:44:17.497Z,31.35
2017-05-08T01:46:46.555Z,28.20
2017-05-08T01:49:14.866Z,25.08
2017-05-08T01:51:43.178Z,25.45
2017-05-08T01:54:11.776Z,26.12
2017-05-08T01:56:40.086Z,26.33
2017-05-08T01:59:08.422Z,23.25
2017-05-08T02:01:38.021Z,21.97
2017-05-08T02:04:06.330Z,27.57
2017-05-08T02:06:34.641Z,24.63
2017-05-08T02:09:03.691Z,27.32
2017-05-08T02:11:31.997Z,33.40
2017-05-08T02:14:00.305Z,26.92
2017-05-08T02:16:28.613Z,27.53
2017-05-08T02:18:56.924Z,27.00
2017-05-08T02:21:25.850Z,26.92
2017-05-08T02:23:54.933Z,23.98
2017-05-08T02:26:23.237Z,26.22
2017-05-08T02:28:51.547Z,23.85
2017-05-08T02:31:19.858Z,29.65
2017-05-08T02:33:48.908Z,22.42
2017-05-08T02:36:17.254Z,18.30
2017-05-08T02:38:45.917Z,20.40
2017-05-08T02:41:14.225Z,19.78
2017-05-08T02:43:42.542Z,18.98
2017-05-08T02:46:10.858Z,23.08
2017-05-08T02:48:39.174Z,19.10
2017-05-08T02:51:08.226Z,17.45
2017-05-08T02:53:36.535Z,18.85
2017-05-08T02:56:05.602Z,24.65
2017-05-08T02:58:34.654Z,20.52
2017-05-08T03:01:02.974Z,19.80
2017-05-08T03:03:31.282Z,20.75
2017-05-08T03:05:59.594Z,17.78
2017-05-08T03:08:27.906Z,20.93
2017-05-08T03:10:56.963Z,18.32
2017-05-08T03:13:25.274Z,20.15
2017-05-08T03:15:53.582Z,21.92
2017-05-08T03:18:21.962Z,19.40
2017-05-08T03:20:50.274Z,19.38
2017-05-08T03:23:18.588Z,26.73
2017-05-08T03:25:47.461Z,20.63
2017-05-08T03:28:15.768Z,24.25
2017-05-08T03:30:44.437Z,18.52
2017-05-08T03:33:13.483Z,25.63
2017-05-08T03:38:11.853Z,22.45
2017-05-08T03:40:40.161Z,23.65
2017-05-08T03:43:08.465Z,22.63
2017-05-08T03:45:36.774Z,24.00
2017-05-08T03:48:05.083Z,23.53
2017-05-08T03:50:34.136Z,26.38
2017-05-08T03:53:02.481Z,24.52
2017-05-08T03:55:30.794Z,19.92
2017-05-08T03:58:00.768Z,20.43
2017-05-08T04:00:29.104Z,27.67
2017-05-08T04:02:57.463Z,26.13
2017-05-08T04:05:25.795Z,24.00
2017-05-08T04:07:54.089Z,27.97
2017-05-08T04:10:22.392Z,28.08
2017-05-08T04:12:50.701Z,26.48
2017-05-08T04:15:19.009Z,25.38
2017-05-08T04:17:48.210Z,20.12
2017-05-08T04:20:16.534Z,21.47
2017-05-08T04:22:44.842Z,20.87
2017-05-08T04:25:14.071Z,17.62
2017-05-08T04:27:42.378Z,18.23
2017-05-08T04:30:10.688Z,15.72
2017-05-08T04:32:38.998Z,16.88
2017-05-08T04:35:07.314Z,15.53
2017-05-08T04:37:35.625Z,13.80
2017-05-08T04:40:03.933Z,12.37
2017-05-08T04:42:33.025Z,14.52
2017-05-08T04:45:01.329Z,11.92
2017-05-08T04:47:29.633Z,12.37
2017-05-08T04:49:57.997Z,14.43
2017-05-08T04:52:26.301Z,14.18
2017-05-08T04:54:54.637Z,14.62
2017-05-08T04:57:22.950Z,13.17
2017-05-08T04:59:51.262Z,13.18
2017-05-08T05:02:19.585Z,14.38
2017-05-08T05:04:47.893Z,13.58
2017-05-08T05:07:16.202Z,13.25
2017-05-08T05:09:45.114Z,11.80
2017-05-08T05:12:13.422Z,12.55
2017-05-08T05:14:41.738Z,13.10
2017-05-08T05:17:10.055Z,14.37
2017-05-08T05:19:39.102Z,16.70
2017-05-08T05:22:07.830Z,16.13
2017-05-08T05:24:36.551Z,15.37
2017-05-08T05:27:04.865Z,15.68
2017-05-08T05:29:33.174Z,19.05
2017-05-08T05:32:02.229Z,19.10
2017-05-08T05:34:30.535Z,15.35
2017-05-08T05:36:58.850Z,15.33
2017-05-08T05:39:27.202Z,17.42
2017-05-08T05:41:55.513Z,15.98
2017-05-08T05:44:23.821Z,15.37
2017-05-08T05:46:52.125Z,17.70
2017-05-08T05:49:20.445Z,19.13
2017-05-08T05:51:48.873Z,16.43
2017-05-08T05:54:17.926Z,15.45
2017-05-08T05:56:46.239Z,19.57
2017-05-08T05:59:14.561Z,19.00
2017-05-08T06:01:42.879Z,20.00
2017-05-08T06:04:11.933Z,15.55
2017-05-08T06:06:40.281Z,17.83
2017-05-08T06:09:08.594Z,18.45
2017-05-08T06:11:38.089Z,16.33
2017-05-08T06:14:06.403Z,16.00
2017-05-08T06:16:34.717Z,14.05
2017-05-08T06:19:03.765Z,16.65
2017-05-08T06:21:32.085Z,15.37
2017-05-08T06:24:00.554Z,14.25
2017-05-08T06:26:28.929Z,12.30
2017-05-08T06:28:57.993Z,13.55
2017-05-08T06:31:26.302Z,13.38
2017-05-08T06:33:54.621Z,13.23
2017-05-08T06:36:22.936Z,11.93
2017-05-08T06:38:51.245Z,11.33
2017-05-08T06:41:20.296Z,10.67
2017-05-08T06:43:48.603Z,8.75
2017-05-08T06:46:16.950Z,13.02
2017-05-08T06:48:45.993Z,8.17
2017-05-08T06:51:14.302Z,7.65
2017-05-08T06:53:42.604Z,7.45
2017-05-08T06:56:10.911Z,8.78
2017-05-08T06:58:39.213Z,6.95
2017-05-08T07:01:07.518Z,7.05
2017-05-08T07:03:35.831Z,5.32
2017-05-08T07:06:04.133Z,5.72
2017-05-08T07:08:32.479Z,6.10
2017-05-08T07:11:00.797Z,6.37
2017-05-08T07:13:29.099Z,7.02
2017-05-08T07:15:57.408Z,8.03
2017-05-08T07:18:25.757Z,6.27
2017-05-08T07:20:54.065Z,9.47
2017-05-08T07:23:22.381Z,11.23
2017-05-08T07:25:50.688Z,6.63
2017-05-08T07:28:22.294Z,7.73
2017-05-08T07:30:50.614Z,8.13
2017-05-08T07:33:19.653Z,8.47
2017-05-08T07:35:47.960Z,7.90
2017-05-08T07:38:16.257Z,7.53
2017-05-08T07:40:44.598Z,8.80
2017-05-08T07:43:12.901Z,8.52
2017-05-08T07:45:41.204Z,8.80
2017-05-08T07:48:09.513Z,10.50
2017-05-08T07:50:38.595Z,10.93
2017-05-08T07:53:06.921Z,12.68
2017-05-08T07:55:35.233Z,11.42
2017-05-08T07:58:04.278Z,10.10
2017-05-08T08:00:32.586Z,11.63
2017-05-08T08:03:00.893Z,9.95
2017-05-08T08:05:30.025Z,10.85
2017-05-08T08:07:58.331Z,10.95
2017-05-08T08:10:26.639Z,11.52
2017-05-08T08:12:54.978Z,11.25
2017-05-08T08:15:23.284Z,9.98
2017-05-08T08:17:51.593Z,12.55
2017-05-08T08:20:19.897Z,11.72
2017-05-08T08:22:48.209Z,10.50
2017-05-08T08:25:16.821Z,9.65
2017-05-08T08:27:45.126Z,14.52
2017-05-08T08:30:14.078Z,12.78
2017-05-08T08:32:43.130Z,18.02
2017-05-08T08:35:11.438Z,18.82
2017-05-08T08:37:39.741Z,20.80
2017-05-08T08:40:08.049Z,22.88
2017-05-08T08:42:36.362Z,24.90
2017-05-08T08:45:04.669Z,23.87
2017-05-08T08:47:33.726Z,25.67
2017-05-08T08:50:02.038Z,27.20
2017-05-08T08:52:30.345Z,21.38
2017-05-08T08:54:58.645Z,24.95
2017-05-08T08:57:26.957Z,23.67
2017-05-08T08:59:55.274Z,24.35
2017-05-08T09:02:24.323Z,26.95
2017-05-08T09:04:52.637Z,26.48
2017-05-08T09:07:20.949Z,23.85
2017-05-08T09:09:49.257Z,21.80
2017-05-08T09:12:17.605Z,24.62
2017-05-08T09:14:45.997Z,22.27
2017-05-08T09:17:14.309Z,19.17
2017-05-08T09:19:42.614Z,19.15
2017-05-08T09:22:10.962Z,18.05
2017-05-08T09:24:39.266Z,16.80
2017-05-08T09:27:07.853Z,22.03
2017-05-08T09:29:36.165Z,16.57
2017-05-08T09:32:04.801Z,14.53
2017-05-08T09:34:33.110Z,19.67
2017-05-08T09:37:01.414Z,17.25
2017-05-08T09:39:29.722Z,18.33
2017-05-08T09:41:58.026Z,17.35
2017-05-08T09:44:26.334Z,17.02
2017-05-08T09:46:54.641Z,20.15
2017-05-08T09:49:22.953Z,21.02
2017-05-08T09:51:51.300Z,25.32
2017-05-08T09:54:19.622Z,26.13
2017-05-08T09:56:47.933Z,22.67
2017-05-08T09:59:16.255Z,21.57
2017-05-08T10:01:44.565Z,22.95
2017-05-08T10:04:13.622Z,27.25
2017-05-08T10:06:41.947Z,25.32
2017-05-08T10:09:10.358Z,22.88
2017-05-08T10:11:38.673Z,24.57
2017-05-08T10:14:07.726Z,22.45
2017-05-08T10:16:36.038Z,27.60
2017-05-08T10:19:04.353Z,21.40
2017-05-08T10:21:32.672Z,23.25
2017-05-08T10:24:01.137Z,29.30
2017-05-08T10:26:29.561Z,24.58
2017-05-08T10:28:57.869Z,22.12
2017-05-08T10:31:26.191Z,23.73
2017-05-08T10:33:55.263Z,22.05
2017-05-08T10:36:23.572Z,23.88
2017-05-08T10:38:51.890Z,24.23
2017-05-08T10:41:20.206Z,27.93
2017-05-08T10:43:49.269Z,28.00
2017-05-08T10:46:17.586Z,20.18
2017-05-08T10:48:45.920Z,22.25
2017-05-08T10:51:15.584Z,23.83
2017-05-08T10:53:43.893Z,19.38
2017-05-08T10:56:12.201Z,22.17
2017-05-08T10:58:40.529Z,22.93
2017-05-08T11:01:09.600Z,21.23
2017-05-08T11:03:37.912Z,20.43
2017-05-08T11:06:06.229Z,25.47
2017-05-08T11:08:34.543Z,22.40
2017-05-08T11:11:03.653Z,25.02
2017-05-08T11:13:38.304Z,16.77
2017-05-08T11:16:06.653Z,24.77
2017-05-08T11:18:34.966Z,25.25
2017-05-08T11:21:03.786Z,25.52
2017-05-08T11:23:32.118Z,25.63
2017-05-08T11:26:00.433Z,25.52
2017-05-08T11:28:29.138Z,22.03
2017-05-08T11:30:57.458Z,22.47
2017-05-08T11:33:25.779Z,25.02
2017-05-08T11:35:54.102Z,22.82
2017-05-08T11:38:23.166Z,25.62
2017-05-08T11:40:51.485Z,20.25
2017-05-08T11:43:19.802Z,22.35
2017-05-08T11:45:48.130Z,20.97
2017-05-08T11:48:17.198Z,20.32
2017-05-08T11:50:45.505Z,23.73
2017-05-08T11:53:13.825Z,21.37
2017-05-08T11:55:42.898Z,19.12
2017-05-08T11:58:11.214Z,21.28
2017-05-08T12:00:39.529Z,23.60
2017-05-08T12:03:07.866Z,22.35
2017-05-08T12:05:36.182Z,19.93
2017-05-08T12:08:04.542Z,20.90
2017-05-08T12:10:33.593Z,19.50
2017-05-08T12:13:02.121Z,20.15
2017-05-08T12:15:30.438Z,17.90
2017-05-08T12:17:59.146Z,18.57
2017-05-08T12:20:27.469Z,22.37
2017-05-08T12:22:56.573Z,21.30
2017-05-08T12:25:24.893Z,22.37
2017-05-08T12:27:53.209Z,19.75
2017-05-08T12:30:22.358Z,16.38
2017-05-08T12:32:50.673Z,23.18
2017-05-08T12:35:19.001Z,21.28
2017-05-08T12:37:47.321Z,21.02
2017-05-08T12:40:15.630Z,22.48
2017-05-08T12:42:43.946Z,20.45
2017-05-08T12:45:12.545Z,21.32
2017-05-08T12:47:40.893Z,19.95
2017-05-08T12:50:09.953Z,22.43
2017-05-08T12:52:38.264Z,22.73
2017-05-08T12:55:06.578Z,23.45
2017-05-08T12:57:34.898Z,22.53
2017-05-08T13:00:03.952Z,18.87
2017-05-08T13:02:32.271Z,23.48
2017-05-08T13:05:01.128Z,20.37
2017-05-08T13:07:30.181Z,20.40
2017-05-08T13:09:58.866Z,19.98
2017-05-08T13:12:27.182Z,20.17
2017-05-08T13:14:55.498Z,23.87
2017-05-08T13:17:23.805Z,22.05
2017-05-08T13:19:53.095Z,25.80
2017-05-08T13:22:21.406Z,23.53
2017-05-08T13:24:49.721Z,24.52
2017-05-08T13:27:18.041Z,26.40
2017-05-08T13:29:46.351Z,27.57
2017-05-08T13:32:15.705Z,27.68
2017-05-08T13:34:44.030Z,24.97
2017-05-08T13:37:12.342Z,24.40
2017-05-08T13:39:40.652Z,23.95
2017-05-08T13:42:08.970Z,28.82
2017-05-08T13:44:38.021Z,21.30
2017-05-08T13:47:06.746Z,25.08
2017-05-08T13:49:35.057Z,27.15
2017-05-08T13:52:03.367Z,23.08
2017-05-08T13:54:31.681Z,23.32
2017-05-08T13:57:00.963Z,21.83
2017-05-08T13:59:29.280Z,26.52
2017-05-08T14:01:57.593Z,22.90
2017-05-08T14:04:26.651Z,23.72
2017-05-08T14:06:54.957Z,24.48
2017-05-08T14:09:23.276Z,20.88
2017-05-08T14:11:51.585Z,21.90
2017-05-08T14:14:19.893Z,26.47
2017-05-08T14:16:48.613Z,22.17
2017-05-08T14:19:17.662Z,26.45
2017-05-08T14:21:45.973Z,21.93
2017-05-08T14:24:14.285Z,23.97
2017-05-08T14:26:42.595Z,21.93
2017-05-08T14:29:15.155Z,25.72
2017-05-08T14:31:43.466Z,22.97
2017-05-08T14:34:11.778Z,25.85
2017-05-08T14:36:40.095Z,21.25
2017-05-08T14:39:08.794Z,19.85
2017-05-08T14:41:37.109Z,31.13
2017-05-08T14:44:06.166Z,25.08
2017-05-08T14:46:34.477Z,35.13
2017-05-08T14:49:02.785Z,27.27
2017-05-08T14:51:31.102Z,34.48
2017-05-08T14:53:59.898Z,29.87
2017-05-08T14:56:28.211Z,22.03
2017-05-08T14:58:56.523Z,21.43
2017-05-08T15:01:25.584Z,21.27
2017-05-08T15:03:54.317Z,128.88
2017-05-08T15:06:22.821Z,63.70
2017-05-08T15:08:51.175Z,38.20
2017-05-08T15:11:19.500Z,33.52
2017-05-08T15:13:47.817Z,17.10
2017-05-08T15:16:16.135Z,21.07
2017-05-08T15:18:44.773Z,17.67
2017-05-08T15:21:13.089Z,12.08
2017-05-08T15:23:41.402Z,13.28
2017-05-08T15:26:09.718Z,12.40
2017-05-08T15:28:39.341Z,13.07
2017-05-08T15:31:18.457Z,11.95
2017-05-08T15:33:50.290Z,12.58
2017-05-08T15:36:22.216Z,14.83
2017-05-08T15:38:55.594Z,12.27
2017-05-08T15:41:24.813Z,12.15
2017-05-08T15:43:54.757Z,12.62
2017-05-08T15:46:23.075Z,11.25
2017-05-08T15:48:51.409Z,13.42
2017-05-08T15:51:25.009Z,11.85
2017-05-08T15:53:53.331Z,13.75
2017-05-08T15:56:24.597Z,11.60
2017-05-08T15:58:55.829Z,10.18
2017-05-08T16:01:27.778Z,10.45
2017-05-08T16:03:57.292Z,10.43
2017-05-08T16:06:26.971Z,13.85
2017-05-08T16:08:56.425Z,10.48
2017-05-08T16:11:25.644Z,54.22
2017-05-08T16:13:54.939Z,13.82
2017-05-08T16:16:23.638Z,21.73
2017-05-08T16:18:51.950Z,12.87
2017-05-08T16:21:20.266Z,15.87
2017-05-08T16:23:49.329Z,10.73
2017-05-08T16:26:18.271Z,81.35
2017-05-08T16:28:50.614Z,10.33
2017-05-08T16:31:19.162Z,11.02
2017-05-08T16:33:49.683Z,11.50
2017-05-08T16:36:18.792Z,10.73
2017-05-08T16:38:47.106Z,14.23
2017-05-08T16:41:15.433Z,10.87
2017-05-08T16:43:43.771Z,25.52
2017-05-08T16:46:14.828Z,64.53
2017-05-08T16:48:45.237Z,23.82
2017-05-08T16:51:13.558Z,14.13
2017-05-08T16:53:42.614Z,33.37
2017-05-08T16:56:10.929Z,33.92
2017-05-08T16:58:39.265Z,15.17
2017-05-08T17:01:10.904Z,17.82
2017-05-08T17:03:40.149Z,15.98
2017-05-08T17:06:08.469Z,16.48
2017-05-08T17:08:36.791Z,18.30
2017-05-08T17:11:05.107Z,16.62
2017-05-08T17:13:33.416Z,13.52
2017-05-08T17:16:01.730Z,14.07
2017-05-08T17:18:30.133Z,13.02
2017-05-08T17:20:58.449Z,15.52
2017-05-08T17:23:27.340Z,11.93
2017-05-08T17:25:55.664Z,11.92
2017-05-08T17:28:24.034Z,12.25
2017-05-08T17:30:52.491Z,10.97
2017-05-08T17:33:20.849Z,11.45
2017-05-08T17:35:50.220Z,14.90
2017-05-08T17:38:18.534Z,29.23
2017-05-08T17:40:46.850Z,11.52
2017-05-08T17:43:15.157Z,10.65
2017-05-08T17:45:43.465Z,11.40
2017-05-08T17:48:12.965Z,12.22
2017-05-08T17:50:41.285Z,10.00
2017-05-08T17:53:09.597Z,11.72
2017-05-08T17:55:38.649Z,12.05
2017-05-08T17:58:06.977Z,12.93
2017-05-08T18:00:35.294Z,11.90
2017-05-08T18:03:03.642Z,12.72
2017-05-08T18:05:32.886Z,13.83
2017-05-08T18:08:01.202Z,14.38
2017-05-08T18:10:29.586Z,14.12
2017-05-08T18:12:57.893Z,13.85
2017-05-08T18:15:26.208Z,15.20
2017-05-08T18:17:54.525Z,13.67
2017-05-08T18:20:23.576Z,12.50
2017-05-08T18:22:51.892Z,13.60
2017-05-08T18:25:20.209Z,13.70
2017-05-08T18:27:48.521Z,12.08
2017-05-08T18:30:17.625Z,12.43
2017-05-08T18:32:46.678Z,12.53
2017-05-08T18:35:14.986Z,14.97
2017-05-08T18:37:45.931Z,13.87
2017-05-08T18:40:15.070Z,14.03
2017-05-08T18:42:43.377Z,10.87
2017-05-08T18:45:11.681Z,10.87
2017-05-08T18:47:40.601Z,10.65
2017-05-08T18:50:08.910Z,11.83
2017-05-08T18:52:37.217Z,11.03
2017-05-08T18:55:05.561Z,11.87
2017-05-08T18:57:33.894Z,12.47
2017-05-08T19:00:02.204Z,13.83
2017-05-08T19:02:30.514Z,12.12
2017-05-08T19:04:58.953Z,11.85
2017-05-08T19:07:27.261Z,10.72
2017-05-08T19:09:57.945Z,9.80
2017-05-08T19:12:26.289Z,10.43
2017-05-08T19:14:55.337Z,14.65
2017-05-08T19:17:23.685Z,13.83
2017-05-08T19:19:52.759Z,14.08
2017-05-08T19:22:21.174Z,12.42
2017-05-08T19:27:41.435Z,11.97
2017-05-08T19:30:10.481Z,12.03
2017-05-08T19:32:42.545Z,10.22
2017-05-08T19:35:10.854Z,11.82
2017-05-08T19:37:39.354Z,12.45
2017-05-08T19:40:08.312Z,12.50
2017-05-08T19:42:36.617Z,11.82
2017-05-08T19:45:04.928Z,12.27
2017-05-08T19:47:34.022Z,13.13
2017-05-08T19:50:02.330Z,12.40
2017-05-08T19:52:30.634Z,11.58
2017-05-08T19:54:58.946Z,12.02
2017-05-08T19:57:28.043Z,12.23
2017-05-08T19:59:56.398Z,12.13
2017-05-08T20:02:24.708Z,13.27
2017-05-08T20:04:53.121Z,13.57
2017-05-08T20:07:21.473Z,13.20
2017-05-08T20:09:49.784Z,11.93
2017-05-08T20:12:18.092Z,12.03
2017-05-08T20:14:46.391Z,12.83
2017-05-08T20:17:14.698Z,11.67
2017-05-08T20:19:43.061Z,13.82
2017-05-08T20:22:12.109Z,12.58
2017-05-08T20:24:40.417Z,12.63
2017-05-08T20:27:08.724Z,11.43
2017-05-08T20:29:37.029Z,11.82
2017-05-08T20:32:05.378Z,11.43
2017-05-08T20:34:34.026Z,11.82
2017-05-08T20:37:02.329Z,13.42
2017-05-08T20:39:30.669Z,13.00
2017-05-08T20:41:59.713Z,11.73
2017-05-08T20:44:28.125Z,15.43
2017-05-08T20:46:56.430Z,12.07
2017-05-08T20:49:24.737Z,10.42
2017-05-08T20:51:53.034Z,9.97
2017-05-08T20:54:21.341Z,11.37
2017-05-08T20:56:49.686Z,10.53
2017-05-08T20:59:18.014Z,12.10
2017-05-08T21:01:46.327Z,11.78
2017-05-08T21:04:14.637Z,12.82
2017-05-08T21:06:42.933Z,10.78
2017-05-08T21:09:11.353Z,11.78
2017-05-08T21:11:39.660Z,11.93
2017-05-08T21:14:08.702Z,13.62
2017-05-08T21:16:37.301Z,11.33
2017-05-08T21:19:05.602Z,11.05
2017-05-08T21:21:33.905Z,12.10
2017-05-08T21:24:02.215Z,11.45
2017-05-08T21:26:30.526Z,10.78
2017-05-08T21:28:58.985Z,10.90
2017-05-08T21:31:28.026Z,13.48
2017-05-08T21:33:56.978Z,12.38
2017-05-08T21:36:25.281Z,12.52
2017-05-08T21:38:53.586Z,13.95
2017-05-08T21:41:21.961Z,12.90
2017-05-08T21:43:50.269Z,14.07
2017-05-08T21:46:18.878Z,13.50
2017-05-08T21:48:47.181Z,11.77
2017-05-08T21:51:15.485Z,13.33
2017-05-08T21:53:43.798Z,12.83
2017-05-08T21:56:12.847Z,12.63
2017-05-08T21:58:41.307Z,12.08
2017-05-08T22:01:10.358Z,16.52
2017-05-08T22:03:39.096Z,13.83
2017-05-08T22:06:07.402Z,17.97
2017-05-08T22:08:35.713Z,14.18
2017-05-08T22:11:04.018Z,14.08
2017-05-08T22:13:32.326Z,13.93
2017-05-08T22:16:05.438Z,13.02
2017-05-08T22:18:34.488Z,15.67
2017-05-08T22:21:02.797Z,15.58
2017-05-08T22:23:31.104Z,15.82
2017-05-08T22:25:59.413Z,16.52
2017-05-08T22:28:28.114Z,14.00
2017-05-08T22:30:56.420Z,13.90
2017-05-08T22:33:24.729Z,18.08
2017-05-08T22:35:53.469Z,16.83
2017-05-08T22:38:21.778Z,17.90
2017-05-08T22:40:50.106Z,18.00
2017-05-08T22:43:18.413Z,18.53
2017-05-08T22:45:46.718Z,13.78
2017-05-08T22:48:15.027Z,13.98
2017-05-08T22:50:43.616Z,16.22
2017-05-08T22:53:11.978Z,13.78
2017-05-08T22:55:40.283Z,14.90
2017-05-08T22:58:08.588Z,12.47
2017-05-08T23:00:37.199Z,15.28
2017-05-08T23:03:05.510Z,13.13
2017-05-08T23:05:33.825Z,12.72
2017-05-08T23:08:02.825Z,11.88
2017-05-08T23:10:31.130Z,12.75
2017-05-08T23:12:59.437Z,13.92
2017-05-08T23:15:28.062Z,12.18
2017-05-08T23:17:57.105Z,12.08
2017-05-08T23:20:25.411Z,10.45
2017-05-08T23:22:53.719Z,12.40
2017-05-08T23:25:22.018Z,9.57
2017-05-08T23:27:50.318Z,9.82
2017-05-08T23:30:18.621Z,10.17
2017-05-08T23:32:47.278Z,8.85
2017-05-08T23:35:16.330Z,11.98
2017-05-08T23:37:44.901Z,7.42
2017-05-08T23:40:13.193Z,7.92
2017-05-08T23:42:42.233Z,7.62
2017-05-08T23:45:10.777Z,10.05
2017-05-08T23:47:39.081Z,7.33
2017-05-08T23:50:07.382Z,6.82
2017-05-08T23:52:35.685Z,6.82
2017-05-08T23:55:04.371Z,5.30
2017-05-08T23:57:32.673Z,6.03
